Time;durP1;ratioP1;P1;durP2;ratioP2;P2;SDS_P1;SDS_P2;PMS_P1;PMS_P2;Temp;Humidity;BMP_temperature;BMP_pressure;BME280_temperature;BME280_humidity;BME280_pressure;Samples;Min_cycle;Max_cycle;Signal;HPM_P1;HPM_P2
2023/09/19 00:00:00;;;;;;;;;;;;;;;21.21;61.82;98924.06;10206647;28;858;-79
2023/09/19 00:04:56;;;;;;;;;;;;;;;21.23;62.23;98929.28;10205914;28;788;-79
2023/09/19 00:09:52;;;;;;;;;;;;;;;21.27;62.21;98943.16;10205917;28;1956;-79
2023/09/19 00:14:48;;;;;;;;;;;;;;;21.21;62.25;98942.63;10205694;28;905;-79
2023/09/19 00:19:46;;;;;;;;;;;;;;;21.21;62.19;98944.44;10205681;28;768;-80
2023/09/19 00:24:42;;;;;;;;;;;;;;;21.19;62.43;98952.47;10205092;28;922;-79
2023/09/19 00:29:39;;;;;;;;;;;;;;;21.18;61.78;98956.09;10204976;28;1902;-79
2023/09/19 00:34:35;;;;;;;;;;;;;;;21.15;61.82;98951.00;10205526;28;917;-79
2023/09/19 00:39:31;;;;;;;;;;;;;;;21.18;62.00;98961.41;10205104;28;1101;-79
2023/09/19 00:44:27;;;;;;;;;;;;;;;21.15;61.31;98974.03;10203974;28;952;-80
2023/09/19 00:49:25;;;;;;;;;;;;;;;21.14;61.59;98981.13;10204332;28;1926;-79
2023/09/19 00:54:21;;;;;;;;;;;;;;;21.13;61.76;98979.41;10204528;28;875;-79
2023/09/19 00:59:17;;;;;;;;;;;;;;;21.15;62.00;98988.13;10204807;28;861;-79
2023/09/19 01:04:13;;;;;;;;;;;;;;;21.13;61.80;98984.72;10204333;28;873;-79
2023/09/19 01:09:09;;;;;;;;;;;;;;;21.14;61.42;98996.16;10204004;28;1898;-79
2023/09/19 01:14:04;;;;;;;;;;;;;;;21.09;61.20;98995.63;10204522;28;838;-79
2023/09/19 01:19:00;;;;;;;;;;;;;;;21.08;61.46;98994.78;10203804;28;835;-79
2023/09/19 01:23:56;;;;;;;;;;;;;;;21.07;60.77;99001.06;10210650;28;875;-79
2023/09/19 01:28:54;;;;;;;;;;;;;;;21.09;61.56;99001.81;10212427;28;1970;-79
2023/09/19 01:33:51;;;;;;;;;;;;;;;21.07;61.33;99009.00;10211626;28;794;-79
2023/09/19 01:38:48;;;;;;;;;;;;;;;21.06;61.34;99009.09;10211005;28;1105;-79
2023/09/19 01:43:44;;;;;;;;;;;;;;;21.04;61.34;99006.56;10211754;28;819;-79
2023/09/19 01:48:40;;;;;;;;;;;;;;;21.06;61.47;99014.38;10211004;28;1918;-79
2023/09/19 01:53:36;;;;;;;;;;;;;;;21.06;61.60;99027.63;10211060;28;792;-79
2023/09/19 01:58:32;;;;;;;;;;;;;;;21.03;61.54;99023.41;10211405;28;870;-79
2023/09/19 02:03:28;;;;;;;;;;;;;;;21.04;61.44;99032.19;10211164;28;798;-80
2023/09/19 02:08:24;;;;;;;;;;;;;;;21.02;61.50;99024.38;10211088;28;1965;-79
2023/09/19 02:13:20;;;;;;;;;;;;;;;21.02;61.51;99013.75;10210767;28;801;-80
2023/09/19 02:18:16;;;;;;;;;;;;;;;21.02;61.38;99025.19;10210621;28;834;-79
2023/09/19 02:23:12;;;;;;;;;;;;;;;21.01;61.49;99027.94;10210525;28;833;-79
2023/09/19 02:28:09;;;;;;;;;;;;;;;20.98;61.61;99042.25;10209942;28;1894;-79
2023/09/19 02:33:05;;;;;;;;;;;;;;;20.99;61.08;99040.47;10209642;28;832;-79
2023/09/19 02:38:00;;;;;;;;;;;;;;;20.98;61.21;99046.69;10209359;28;1311;-79
2023/09/19 02:42:59;;;;;;;;;;;;;;;20.99;61.30;99045.78;10209101;28;885;-79
2023/09/19 02:47:54;;;;;;;;;;;;;;;21.01;61.31;99057.09;10208755;28;1918;-79
2023/09/19 02:52:51;;;;;;;;;;;;;;;20.98;61.31;99057.31;10208328;28;925;-80
2023/09/19 02:57:47;;;;;;;;;;;;;;;20.99;61.18;99064.31;10208528;28;920;-79
2023/09/19 03:02:44;;;;;;;;;;;;;;;20.97;61.27;99059.09;10208617;28;757;-79
2023/09/19 03:07:42;;;;;;;;;;;;;;;20.94;61.22;99058.47;10208032;28;1965;-79
2023/09/19 03:12:40;;;;;;;;;;;;;;;20.95;61.30;99065.47;10207855;28;874;-79
2023/09/19 03:17:35;;;;;;;;;;;;;;;20.99;61.44;99075.75;10207699;28;902;-79
2023/09/19 03:22:32;;;;;;;;;;;;;;;20.95;61.31;99084.00;10207614;28;946;-80
2023/09/19 03:27:28;;;;;;;;;;;;;;;20.92;61.47;99087.72;10207805;28;1967;-79
2023/09/19 03:32:24;;;;;;;;;;;;;;;20.95;61.41;99100.75;10207839;28;861;-79
2023/09/19 03:37:20;;;;;;;;;;;;;;;20.94;61.41;99091.09;10207125;28;1422;-79
2023/09/19 03:42:16;;;;;;;;;;;;;;;20.93;61.33;99094.72;10206831;28;779;-79
2023/09/19 03:47:12;;;;;;;;;;;;;;;20.92;61.47;99097.47;10205815;28;1918;-79
2023/09/19 03:52:08;;;;;;;;;;;;;;;20.91;61.48;99093.97;10207066;28;881;-79
2023/09/19 03:57:04;;;;;;;;;;;;;;;20.90;61.36;99094.06;10206220;28;929;-79
2023/09/19 04:02:00;;;;;;;;;;;;;;;20.88;61.33;99093.31;10206742;28;937;-80
2023/09/19 04:06:55;;;;;;;;;;;;;;;20.87;61.30;99092.47;10206643;28;1961;-79
2023/09/19 04:11:51;;;;;;;;;;;;;;;20.90;61.42;99094.06;10205716;28;1123;-79
2023/09/19 04:16:47;;;;;;;;;;;;;;;20.85;61.42;99097.00;10204954;28;889;-79
2023/09/19 04:21:43;;;;;;;;;;;;;;;20.85;61.26;99097.00;10205628;28;815;-79
2023/09/19 04:26:39;;;;;;;;;;;;;;;20.86;61.31;99108.47;10205276;28;1910;-77
2023/09/19 04:31:35;;;;;;;;;;;;;;;20.83;61.32;99104.22;10205035;28;910;-79
2023/09/19 04:36:31;;;;;;;;;;;;;;;20.86;61.27;99108.47;10204858;28;1394;-79
2023/09/19 04:41:27;;;;;;;;;;;;;;;20.82;61.25;99104.31;10206027;28;886;-79
2023/09/19 04:46:22;;;;;;;;;;;;;;;20.82;61.53;99112.25;10204116;28;1977;-79
2023/09/19 04:51:20;;;;;;;;;;;;;;;20.82;61.46;99112.25;10205108;28;869;-79
2023/09/19 04:56:16;;;;;;;;;;;;;;;20.81;61.39;99115.88;10204500;28;958;-79
2023/09/19 05:01:14;;;;;;;;;;;;;;;20.82;61.35;99114.91;10204363;28;872;-79
2023/09/19 05:06:10;;;;;;;;;;;;;;;20.78;61.29;99116.94;10203931;28;1886;-79
2023/09/19 05:11:06;;;;;;;;;;;;;;;20.77;61.38;99120.50;10204058;28;818;-79
2023/09/19 05:16:02;;;;;;;;;;;;;;;20.76;61.36;99119.66;10203823;28;822;-77
2023/09/19 05:20:58;;;;;;;;;;;;;;;20.74;61.33;99121.56;10203753;28;904;-78
2023/09/19 05:25:56;;;;;;;;;;;;;;;20.75;61.41;99144.47;10203828;28;1891;-79
2023/09/19 05:30:53;;;;;;;;;;;;;;;20.72;61.12;99141.16;10203275;28;931;-75
2023/09/19 05:35:48;;;;;;;;;;;;;;;20.70;61.20;99151.00;10203457;28;798;-76
2023/09/19 05:40:45;;;;;;;;;;;;;;;20.69;61.11;99160.72;10204209;28;1097;-75
2023/09/19 05:45:41;;;;;;;;;;;;;;;20.70;61.06;99175.69;10203236;28;1918;-76
2023/09/19 05:50:36;;;;;;;;;;;;;;;20.68;61.03;99179.38;10203412;28;874;-74
2023/09/19 05:55:32;;;;;;;;;;;;;;;20.68;61.04;99179.38;10203329;28;803;-76
2023/09/19 06:00:31;;;;;;;;;;;;;;;20.64;61.24;99191.94;10202999;28;941;-76
2023/09/19 06:05:27;;;;;;;;;;;;;;;20.64;60.80;99185.81;10203824;28;848;-75
2023/09/19 06:10:25;;;;;;;;;;;;;;;20.64;60.99;99196.41;10209026;28;1974;-77
2023/09/19 06:15:23;;;;;;;;;;;;;;;20.63;60.85;99207.97;10210182;28;835;-75
2023/09/19 06:20:19;;;;;;;;;;;;;;;20.62;60.96;99200.94;10210576;28;861;-76
2023/09/19 06:25:22;;;;;;;;;;;;;;;20.61;60.74;99201.91;10210054;28;810;-77
2023/09/19 06:30:17;;;;;;;;;;;;;;;20.58;60.77;99200.28;10209587;28;1886;-75
2023/09/19 06:35:13;;;;;;;;;;;;;;;20.57;60.91;99209.19;10209433;28;865;-78
2023/09/19 06:40:15;;;;;;;;;;;;;;;20.57;60.79;99210.03;10209127;28;1355;-76
2023/09/19 06:45:13;;;;;;;;;;;;;;;20.57;60.96;99215.34;10210982;28;1561;-76
2023/09/19 06:50:12;;;;;;;;;;;;;;;20.58;61.00;99226.78;10249589;28;1941;-77
2023/09/19 06:55:10;;;;;;;;;;;;;;;20.58;60.91;99221.47;10249252;28;746;-77
2023/09/19 07:00:15;;;;;;;;;;;;;;;20.56;60.97;99216.25;10248847;28;877;-77
2023/09/19 07:05:11;;;;;;;;;;;;;;;20.58;61.19;99216.19;10248440;28;938;-77
2023/09/19 07:10:11;;;;;;;;;;;;;;;20.56;61.19;99228.66;10248939;28;1941;-77
2023/09/19 07:15:06;;;;;;;;;;;;;;;20.56;61.20;99234.81;10246412;28;999;-77
2023/09/19 07:20:07;;;;;;;;;;;;;;;20.54;61.21;99238.50;10245717;28;1144;-77
2023/09/19 07:25:03;;;;;;;;;;;;;;;20.55;61.08;99240.22;10247783;28;1096;-77
2023/09/19 07:29:59;;;;;;;;;;;;;;;20.51;61.18;99238.66;10246671;28;1940;-77
2023/09/19 07:34:55;;;;;;;;;;;;;;;20.51;61.11;99230.72;10246289;28;879;-77
2023/09/19 07:39:51;;;;;;;;;;;;;;;20.52;60.98;99232.44;10247258;28;1236;-77
2023/09/19 07:44:49;;;;;;;;;;;;;;;20.52;60.92;99246.53;10246113;28;977;-77
2023/09/19 07:49:47;;;;;;;;;;;;;;;20.55;60.91;99245.50;10246366;28;1962;-80
2023/09/19 07:54:44;;;;;;;;;;;;;;;20.53;60.61;99245.56;10246164;28;875;-82
2023/09/19 07:59:42;;;;;;;;;;;;;;;20.51;60.66;99246.59;10246080;28;799;-72
2023/09/19 08:04:37;;;;;;;;;;;;;;;20.51;60.53;99246.59;10246309;28;951;-72
2023/09/19 08:09:34;;;;;;;;;;;;;;;20.49;60.49;99241.41;10245615;28;1894;-77
2023/09/19 08:14:30;;;;;;;;;;;;;;;20.47;60.25;99248.59;10242590;28;1031;-74
2023/09/19 08:19:28;;;;;;;;;;;;;;;20.48;60.51;99250.28;10245195;28;808;-75
2023/09/19 08:24:24;;;;;;;;;;;;;;;20.46;60.33;99257.50;10245376;28;885;-75
2023/09/19 08:29:20;;;;;;;;;;;;;;;20.46;60.30;99261.91;10244544;28;1894;-74
2023/09/19 08:34:16;;;;;;;;;;;;;;;20.45;60.41;99253.13;10244732;28;818;-74
2023/09/19 08:39:13;;;;;;;;;;;;;;;20.47;60.50;99263.63;10244244;28;1149;-74
2023/09/19 08:44:10;;;;;;;;;;;;;;;20.44;59.81;99271.78;10244679;28;922;-74
2023/09/19 08:49:05;;;;;;;;;;;;;;;20.40;60.09;99267.59;10244126;28;1903;-75
2023/09/19 08:54:01;;;;;;;;;;;;;;;20.39;60.10;99274.69;10244240;28;814;-74
2023/09/19 08:58:58;;;;;;;;;;;;;;;20.40;59.91;99288.78;10243746;28;929;-75
2023/09/19 09:03:54;;;;;;;;;;;;;;;20.38;59.98;99290.66;10244610;28;910;-75
2023/09/19 09:08:50;;;;;;;;;;;;;;;20.39;59.90;99295.88;10243747;28;1891;-72
2023/09/19 09:13:46;;;;;;;;;;;;;;;20.39;59.88;99284.44;10226441;28;1137;-72
2023/09/19 09:18:44;;;;;;;;;;;;;;;20.40;59.89;99283.47;10243334;28;876;-71
2023/09/19 09:23:40;;;;;;;;;;;;;;;20.39;59.76;99285.28;10243714;28;778;-72
2023/09/19 09:28:38;;;;;;;;;;;;;;;20.40;59.56;99276.38;10243073;28;1957;-72
2023/09/19 09:33:34;;;;;;;;;;;;;;;20.41;59.69;99280.75;10244036;28;846;-75
2023/09/19 09:38:33;;;;;;;;;;;;;;;20.40;59.49;99302.88;10241844;28;1217;-75
2023/09/19 09:43:29;;;;;;;;;;;;;;;20.40;59.55;99281.69;10244703;28;830;-75
2023/09/19 09:48:31;;;;;;;;;;;;;;;20.40;59.66;99265.81;10248016;28;1914;-75
2023/09/19 09:53:29;;;;;;;;;;;;;;;20.42;59.50;99282.44;10247690;28;1615;-78
2023/09/19 09:58:29;;;;;;;;;;;;;;;20.43;59.73;99276.19;10247241;28;858;-75
2023/09/19 10:03:26;;;;;;;;;;;;;;;20.43;59.63;99275.34;10248713;28;806;-81
2023/09/19 10:08:22;;;;;;;;;;;;;;;20.40;59.72;99271.09;10246787;28;1894;-82
2023/09/19 10:13:21;;;;;;;;;;;;;;;20.39;59.53;99258.81;10247852;28;810;-82
2023/09/19 10:18:18;;;;;;;;;;;;;;;20.40;59.54;99268.44;10247458;28;871;-78
2023/09/19 10:23:14;;;;;;;;;;;;;;;20.39;59.25;99263.25;10248407;28;914;-81
2023/09/19 10:28:10;;;;;;;;;;;;;;;20.41;59.35;99256.06;10246806;28;1894;-81
2023/09/19 10:33:06;;;;;;;;;;;;;;;20.38;59.23;99246.50;10246602;28;959;-80
2023/09/19 10:38:02;;;;;;;;;;;;;;;20.42;59.34;99242.75;10208628;28;1107742;-80
2023/09/19 10:42:58;;;;;;;;;;;;;;;20.45;59.15;99241.69;10249811;28;847;-81
2023/09/19 10:47:56;;;;;;;;;;;;;;;20.47;59.06;99239.81;10248480;28;1910;-79
2023/09/19 10:52:58;;;;;;;;;;;;;;;20.44;58.98;99232.06;10248758;28;1052;-77
2023/09/19 10:57:53;;;;;;;;;;;;;;;20.46;59.03;99235.44;10248572;28;790;-80
2023/09/19 11:02:49;;;;;;;;;;;;;;;20.47;58.81;99223.94;10248237;28;938;-80
2023/09/19 11:07:45;;;;;;;;;;;;;;;20.45;59.09;99229.31;10247368;28;1894;-82
2023/09/19 11:12:43;;;;;;;;;;;;;;;20.42;58.91;99224.22;10246971;28;873;-74
2023/09/19 11:17:42;;;;;;;;;;;;;;;20.41;58.81;99229.59;10247000;28;1057;-80
2023/09/19 11:22:38;;;;;;;;;;;;;;;20.44;58.85;99229.41;10247522;28;830;-80
2023/09/19 11:27:34;;;;;;;;;;;;;;;20.46;58.87;99230.16;10246655;28;1897;-80
2023/09/19 11:32:30;;;;;;;;;;;;;;;20.43;58.68;99225.91;10247004;28;757;-80
2023/09/19 11:37:27;;;;;;;;;;;;;;;20.42;58.77;99231.31;10246864;28;1118;-80
2023/09/19 11:42:23;;;;;;;;;;;;;;;20.41;58.78;99216.34;10246962;28;862;-80
2023/09/19 11:47:21;;;;;;;;;;;;;;;20.41;58.64;99229.59;10247057;28;1922;-80
2023/09/19 11:52:17;;;;;;;;;;;;;;;20.40;58.74;99226.09;10246246;28;795;-81
2023/09/19 11:57:12;;;;;;;;;;;;;;;20.41;58.37;99219.88;10245644;28;876;-80
2023/09/19 12:02:10;;;;;;;;;;;;;;;20.45;58.60;99239.06;10245804;28;783;-80
2023/09/19 12:07:10;;;;;;;;;;;;;;;20.45;58.75;99229.31;10244911;28;1894;-78
2023/09/19 12:12:06;;;;;;;;;;;;;;;20.47;58.84;99232.72;10245534;28;939;-79
2023/09/19 12:17:03;;;;;;;;;;;;;;;20.44;58.89;99230.25;10244846;28;882;-79
2023/09/19 12:21:59;;;;;;;;;;;;;;;20.46;58.82;99241.63;10245190;28;762;-78
2023/09/19 12:26:56;;;;;;;;;;;;;;;20.51;58.58;99225.41;10239678;28;1956;-78
2023/09/19 12:31:55;;;;;;;;;;;;;;;20.48;57.94;99225.63;10236746;28;1037;-78
2023/09/19 12:36:51;;;;;;;;;;;;;;;20.52;57.79;99203.31;10244618;28;1257;-80
2023/09/19 12:41:48;;;;;;;;;;;;;;;20.55;57.27;99205.78;10245011;28;763;-78
2023/09/19 12:46:45;;;;;;;;;;;;;;;20.60;57.47;99218.75;10245551;28;1981;-75
2023/09/19 12:51:40;;;;;;;;;;;;;;;20.57;57.52;99209.19;10245014;28;839;-79
2023/09/19 12:56:36;;;;;;;;;;;;;;;20.55;57.42;99205.78;10244790;28;911;-78
2023/09/19 13:01:36;;;;;;;;;;;;;;;20.62;56.88;99196.53;10244159;28;798;-78
2023/09/19 13:06:32;;;;;;;;;;;;;;;20.66;55.97;99184.75;10244738;28;1957;-78
2023/09/19 13:11:31;;;;;;;;;;;;;;;20.72;56.80;99176.44;10243772;28;1106;-78
2023/09/19 13:16:27;;;;;;;;;;;;;;;20.79;56.76;99190.97;10243010;28;1597;-78
2023/09/19 13:21:23;;;;;;;;;;;;;;;20.79;55.51;99188.31;10243402;28;1015;-78
2023/09/19 13:26:19;;;;;;;;;;;;;;;20.85;56.48;99181.78;10243602;28;1897;-79
2023/09/19 13:31:16;;;;;;;;;;;;;;;20.77;56.77;99178.78;10242974;28;958;-79
2023/09/19 13:36:13;;;;;;;;;;;;;;;20.83;55.70;99182.81;10243870;28;904;-79
2023/09/19 13:41:09;;;;;;;;;;;;;;;20.75;56.21;99180.66;10208090;28;1204;-78
2023/09/19 13:46:07;;;;;;;;;;;;;;;20.88;56.36;99186.91;10202931;28;1975;-79
2023/09/19 13:51:03;;;;;;;;;;;;;;;21.11;55.50;99188.00;10202834;28;1114;-77
2023/09/19 13:55:59;;;;;;;;;;;;;;;21.26;55.78;99178.22;10203644;28;786;-75
2023/09/19 14:00:58;;;;;;;;;;;;;;;21.36;55.58;99174.00;10200347;28;1035;-74
2023/09/19 14:05:53;;;;;;;;;;;;;;;21.43;55.74;99171.78;10202739;28;1898;-75
2023/09/19 14:10:49;;;;;;;;;;;;;;;21.53;55.87;99164.06;10201631;28;826;-71
2023/09/19 14:15:45;;;;;;;;;;;;;;;21.62;55.55;99169.59;10202953;28;884;-70
2023/09/19 14:20:41;;;;;;;;;;;;;;;21.70;55.46;99170.88;10202164;28;954;-71
2023/09/19 14:25:38;;;;;;;;;;;;;;;21.73;55.35;99176.81;10202936;28;878;-71
2023/09/19 14:30:34;;;;;;;;;;;;;;;21.47;56.20;99162.69;10206845;28;1947;-71
2023/09/19 14:35:30;;;;;;;;;;;;;;;21.24;56.88;99178.28;10209773;28;786;-71
2023/09/19 14:40:26;;;;;;;;;;;;;;;21.35;56.72;99182.91;10208134;28;1281;-71
2023/09/19 14:45:22;;;;;;;;;;;;;;;21.46;56.32;99176.91;10209494;28;882;-71
2023/09/19 14:50:18;;;;;;;;;;;;;;;21.31;56.57;99186.69;10208508;28;1906;-72
2023/09/19 14:55:15;;;;;;;;;;;;;;;21.29;56.93;99169.19;10208894;28;804;-71
2023/09/19 15:00:11;;;;;;;;;;;;;;;21.32;56.70;99185.75;10207997;28;847;-72
2023/09/19 15:05:08;;;;;;;;;;;;;;;21.07;57.34;99181.25;10208129;28;838;-72
2023/09/19 15:10:06;;;;;;;;;;;;;;;21.09;57.01;99192.59;10207680;28;1941;-74
2023/09/19 15:15:02;;;;;;;;;;;;;;;21.05;57.35;99192.88;10207604;28;886;-71
2023/09/19 15:19:58;;;;;;;;;;;;;;;21.04;57.11;99184.09;10207124;28;837;-70
2023/09/19 15:24:56;;;;;;;;;;;;;;;21.02;57.54;99193.94;10206824;28;934;-70
2023/09/19 15:29:52;;;;;;;;;;;;;;;20.94;57.50;99185.66;10206767;28;1890;-69
2023/09/19 15:34:47;;;;;;;;;;;;;;;20.89;57.20;99179.78;10207375;28;965;-69
2023/09/19 15:39:46;;;;;;;;;;;;;;;20.81;57.11;99187.41;10205509;28;1142;-69
2023/09/19 15:44:43;;;;;;;;;;;;;;;20.78;56.02;99196.38;10206399;28;914;-72
2023/09/19 15:49:39;;;;;;;;;;;;;;;20.77;56.61;99187.56;10206059;28;1910;-71
2023/09/19 15:54:35;;;;;;;;;;;;;;;20.74;56.72;99186.94;10206300;28;885;-68
2023/09/19 15:59:31;;;;;;;;;;;;;;;20.73;56.64;99185.22;10206332;28;836;-68
2023/09/19 16:04:26;;;;;;;;;;;;;;;20.74;56.51;99187.78;10206752;28;815;-67
2023/09/19 16:09:22;;;;;;;;;;;;;;;20.71;57.17;99197.72;10206141;28;1894;-71
2023/09/19 16:14:18;;;;;;;;;;;;;;;20.73;56.83;99193.19;10205868;28;780;-71
2023/09/19 16:19:14;;;;;;;;;;;;;;;20.71;57.21;99192.44;10206382;28;873;-72
2023/09/19 16:24:10;;;;;;;;;;;;;;;20.69;56.69;99189.84;10204977;28;1028;-71
2023/09/19 16:29:06;;;;;;;;;;;;;;;20.68;56.97;99185.53;10205205;28;1890;-71
2023/09/19 16:34:02;;;;;;;;;;;;;;;20.66;57.19;99189.22;10205376;28;782;-71
2023/09/19 16:38:59;;;;;;;;;;;;;;;20.66;57.11;99190.06;10205571;28;1305;-71
2023/09/19 16:43:55;;;;;;;;;;;;;;;20.65;57.26;99184.88;10202886;28;1161;-71
2023/09/19 16:48:51;;;;;;;;;;;;;;;20.62;57.39;99174.47;10204661;28;1898;-69
2023/09/19 16:53:49;;;;;;;;;;;;;;;20.58;57.09;99179.13;10204351;28;827;-71
2023/09/19 16:58:45;;;;;;;;;;;;;;;20.59;57.56;99172.84;10203848;28;783;-72
2023/09/19 17:03:41;;;;;;;;;;;;;;;20.57;57.54;99167.69;10203741;28;1021;-72
2023/09/19 17:08:38;;;;;;;;;;;;;;;20.56;57.77;99162.47;10203749;28;1891;-71
2023/09/19 17:13:35;;;;;;;;;;;;;;;20.55;57.48;99172.22;10203557;28;778;-70
2023/09/19 17:18:31;;;;;;;;;;;;;;;20.53;57.66;99178.53;10204585;28;849;-71
2023/09/19 17:23:27;;;;;;;;;;;;;;;20.50;57.76;99174.28;10203072;28;1037;-71
2023/09/19 17:28:23;;;;;;;;;;;;;;;20.50;57.76;99178.72;10203232;28;1866;-71
2023/09/19 17:33:19;;;;;;;;;;;;;;;20.47;57.71;99165.69;10203553;28;838;-69
2023/09/19 17:38:15;;;;;;;;;;;;;;;20.46;57.87;99174.56;10202903;28;1250;-68
2023/09/19 17:43:11;;;;;;;;;;;;;;;20.46;57.74;99175.44;10202966;28;785;-69
2023/09/19 17:48:07;;;;;;;;;;;;;;;20.47;57.98;99186.88;10203344;28;1911;-70
2023/09/19 17:53:03;;;;;;;;;;;;;;;20.45;57.85;99179.00;10202810;28;862;-70
2023/09/19 17:58:01;;;;;;;;;;;;;;;20.46;58.04;99175.44;10204054;28;960;-76
2023/09/19 18:02:57;;;;;;;;;;;;;;;20.45;57.95;99175.53;10203725;28;891;-75
2023/09/19 18:07:52;;;;;;;;;;;;;;;20.43;58.09;99166.81;10210460;28;1890;-77
2023/09/19 18:12:48;;;;;;;;;;;;;;;20.42;58.19;99192.44;10210168;28;873;-76
2023/09/19 18:17:44;;;;;;;;;;;;;;;20.41;58.05;99184.59;10210314;28;763;-78
2023/09/19 18:22:40;;;;;;;;;;;;;;;20.41;58.09;99192.53;10210089;28;929;-78
2023/09/19 18:27:37;;;;;;;;;;;;;;;20.39;57.94;99195.28;10210224;28;1955;-74
2023/09/19 18:32:33;;;;;;;;;;;;;;;20.40;58.12;99193.50;10209696;28;767;-71
2023/09/19 18:37:31;;;;;;;;;;;;;;;20.42;58.08;99199.53;10209779;28;1228;-68
2023/09/19 18:42:29;;;;;;;;;;;;;;;20.40;58.12;99199.63;10209297;28;950;-68
2023/09/19 18:47:28;;;;;;;;;;;;;;;20.39;58.24;99199.75;10209060;28;1906;-68
2023/09/19 18:52:24;;;;;;;;;;;;;;;20.39;58.48;99202.38;10208905;28;879;-78
2023/09/19 18:57:20;;;;;;;;;;;;;;;20.41;58.11;99204.00;10209428;28;853;-77
2023/09/19 19:02:16;;;;;;;;;;;;;;;20.37;58.16;99202.47;10210007;28;783;-77
2023/09/19 19:07:16;;;;;;;;;;;;;;;20.36;58.15;99200.78;10208309;28;1894;-76
2023/09/19 19:12:11;;;;;;;;;;;;;;;20.35;58.15;99202.56;10207531;28;879;-76
2023/09/19 19:17:07;;;;;;;;;;;;;;;20.35;57.92;99207.00;10207966;28;807;-77
2023/09/19 19:22:03;;;;;;;;;;;;;;;20.33;58.03;99203.59;10207858;28;984;-77
2023/09/19 19:26:59;;;;;;;;;;;;;;;20.33;58.02;99207.13;10207445;28;1890;-76
2023/09/19 19:31:55;;;;;;;;;;;;;;;20.37;58.23;99202.47;10207465;28;824;-73
2023/09/19 19:36:51;;;;;;;;;;;;;;;20.39;58.07;99205.03;10207106;28;1246;-77
2023/09/19 19:41:47;;;;;;;;;;;;;;;20.35;58.23;99209.66;10207661;28;728;-77
2023/09/19 19:46:43;;;;;;;;;;;;;;;20.33;58.01;99201.81;10206970;28;1898;-77
2023/09/19 19:51:39;;;;;;;;;;;;;;;20.33;58.08;99201.81;10206751;28;926;-79
2023/09/19 19:56:34;;;;;;;;;;;;;;;20.32;57.72;99193.97;10206590;28;924;-76
2023/09/19 20:01:31;;;;;;;;;;;;;;;20.33;57.77;99203.59;10206327;28;779;-77
2023/09/19 20:06:27;;;;;;;;;;;;;;;20.33;58.06;99198.31;10205449;28;1891;-76
2023/09/19 20:11:29;;;;;;;;;;;;;;;20.30;57.90;99196.72;10205966;28;899;-77
2023/09/19 20:16:31;;;;;;;;;;;;;;;20.34;58.36;99208.81;10206041;28;842;-76
2023/09/19 20:21:28;;;;;;;;;;;;;;;20.33;58.29;99198.31;10205753;28;845;-77
2023/09/19 20:26:25;;;;;;;;;;;;;;;20.33;58.36;99206.25;10204725;28;1886;-76
2023/09/19 20:31:21;;;;;;;;;;;;;;;20.32;58.37;99202.75;10205773;28;982;-76
2023/09/19 20:36:17;;;;;;;;;;;;;;;20.32;58.50;99205.41;10205986;28;1209;-78
2023/09/19 20:41:13;;;;;;;;;;;;;;;20.32;58.27;99188.66;10206263;28;869;-76
2023/09/19 20:46:10;;;;;;;;;;;;;;;20.33;58.63;99190.34;10204752;28;1902;-76
2023/09/19 20:51:08;;;;;;;;;;;;;;;20.33;58.58;99190.34;10203927;28;831;-76
2023/09/19 20:56:05;;;;;;;;;;;;;;;20.35;58.34;99201.72;10204632;28;810;-81
2023/09/19 21:01:01;;;;;;;;;;;;;;;20.32;58.53;99200.09;10203840;28;854;-79
2023/09/19 21:05:57;;;;;;;;;;;;;;;20.30;58.52;99202.03;10204180;28;995;-79
2023/09/19 21:10:53;;;;;;;;;;;;;;;20.32;58.43;99207.19;10204303;28;1965;-79
2023/09/19 21:15:49;;;;;;;;;;;;;;;20.31;58.51;99205.50;10204635;28;893;-79
2023/09/19 21:20:45;;;;;;;;;;;;;;;20.30;58.16;99201.16;10203294;28;929;-79
2023/09/19 21:25:41;;;;;;;;;;;;;;;20.31;58.46;99202.88;10202973;28;961;-78
2023/09/19 21:30:37;;;;;;;;;;;;;;;20.30;58.51;99212.59;10203272;28;1894;-79
2023/09/19 21:35:33;;;;;;;;;;;;;;;20.29;58.43;99194.16;10204222;28;860;-79
2023/09/19 21:40:29;;;;;;;;;;;;;;;20.28;58.33;99189.81;10209547;28;1251;-79
2023/09/19 21:45:24;;;;;;;;;;;;;;;20.28;58.36;99181.88;10212289;28;830;-78
2023/09/19 21:50:20;;;;;;;;;;;;;;;20.27;58.20;99194.25;10211356;28;1977;-78
2023/09/19 21:55:18;;;;;;;;;;;;;;;20.27;58.32;99206.63;10211834;28;756;-79
2023/09/19 22:00:24;;;;;;;;;;;;;;;20.27;58.41;99198.69;10210835;28;826;-78
2023/09/19 22:05:20;;;;;;;;;;;;;;;20.26;58.29;99192.56;10211898;28;857;-78
2023/09/19 22:10:16;;;;;;;;;;;;;;;20.25;58.29;99193.50;10211142;28;1886;-79
2023/09/19 22:15:12;;;;;;;;;;;;;;;20.26;58.37;99195.19;10211147;28;826;-79
2023/09/19 22:20:28;;;;;;;;;;;;;;;20.25;58.42;99193.50;10210813;28;780;-79
2023/09/19 22:25:32;;;;;;;;;;;;;;;20.25;58.45;99193.50;10210038;28;840;-78
2023/09/19 22:30:27;;;;;;;;;;;;;;;20.25;58.30;99190.88;10210153;28;1894;-79
2023/09/19 22:35:29;;;;;;;;;;;;;;;20.25;58.35;99206.75;10209699;28;960;-78
2023/09/19 22:40:30;;;;;;;;;;;;;;;20.24;58.43;99188.31;10209636;28;1909;-79
2023/09/19 22:45:26;;;;;;;;;;;;;;;20.24;58.46;99191.78;10208808;28;916;-79
2023/09/19 22:50:25;;;;;;;;;;;;;;;20.23;58.53;99187.47;10208581;28;1969;-79
2023/09/19 22:55:24;;;;;;;;;;;;;;;20.24;58.37;99180.38;10208840;28;951;-77
2023/09/19 23:00:20;;;;;;;;;;;;;;;20.22;58.39;99184.91;10208764;28;794;-79
2023/09/19 23:05:17;;;;;;;;;;;;;;;20.22;58.54;99188.38;10208791;28;887;-78
2023/09/19 23:10:14;;;;;;;;;;;;;;;20.22;58.54;99188.38;10208256;28;1874;-79
2023/09/19 23:15:17;;;;;;;;;;;;;;;20.21;58.39;99185.84;10208108;28;974;-79
2023/09/19 23:20:17;;;;;;;;;;;;;;;20.21;58.40;99199.94;10208497;28;818;-79
2023/09/19 23:25:17;;;;;;;;;;;;;;;20.21;58.45;99189.34;10207741;28;791;-79
2023/09/19 23:30:15;;;;;;;;;;;;;;;20.20;58.55;99187.66;10207434;28;1962;-78
2023/09/19 23:35:13;;;;;;;;;;;;;;;20.19;58.35;99188.59;10206805;28;854;-78
2023/09/19 23:40:09;;;;;;;;;;;;;;;20.20;58.61;99197.38;10207504;28;1180;-79
2023/09/19 23:45:08;;;;;;;;;;;;;;;20.20;58.39;99194.72;10207163;28;978;-78
2023/09/19 23:50:10;;;;;;;;;;;;;;;20.19;58.54;99182.44;10206658;28;1910;-79
2023/09/19 23:55:09;;;;;;;;;;;;;;;20.20;58.50;99184.13;10207330;28;854;-79
